createdAt,value
2023-07-02T00:00:02.090Z,2.97
2023-07-02T00:02:28.981Z,2.53
2023-07-02T00:04:55.915Z,3.40
2023-07-02T00:07:22.850Z,3.30
2023-07-02T00:09:49.630Z,2.90
2023-07-02T00:12:17.240Z,3.27
2023-07-02T00:14:44.597Z,3.30
2023-07-02T00:17:13.681Z,3.00
2023-07-02T00:19:44.678Z,3.23
2023-07-02T00:22:11.637Z,3.23
2023-07-02T00:24:38.875Z,3.20
2023-07-02T00:27:06.021Z,2.67
2023-07-02T00:29:32.891Z,2.80
2023-07-02T00:31:59.689Z,2.80
2023-07-02T00:34:27.620Z,3.17
2023-07-02T00:36:54.448Z,2.90
2023-07-02T00:39:21.928Z,2.53
2023-07-02T00:41:48.733Z,2.80
2023-07-02T00:44:16.653Z,2.70
2023-07-02T00:46:43.863Z,2.90
2023-07-02T00:49:11.638Z,2.87
2023-07-02T00:51:38.798Z,2.80
2023-07-02T00:54:05.867Z,2.77
2023-07-02T00:56:34.413Z,3.03
2023-07-02T00:59:02.065Z,3.07
2023-07-02T01:01:29.604Z,2.63
2023-07-02T01:04:01.737Z,2.87
2023-07-02T01:06:30.585Z,2.73
2023-07-02T01:09:03.149Z,2.80
2023-07-02T01:11:52.754Z,2.63
2023-07-02T01:14:34.302Z,2.20
2023-07-02T01:17:06.079Z,3.00
2023-07-02T01:19:54.409Z,2.37
2023-07-02T01:22:28.859Z,2.47
2023-07-02T01:24:56.323Z,2.43
2023-07-02T01:27:23.187Z,2.47
2023-07-02T01:29:53.759Z,1.97
2023-07-02T01:32:21.778Z,2.50
2023-07-02T01:34:54.218Z,2.37
2023-07-02T01:37:21.121Z,2.00
2023-07-02T01:39:47.936Z,2.47
2023-07-02T01:42:20.181Z,2.70
2023-07-02T01:44:52.321Z,2.47
2023-07-02T01:47:20.998Z,2.10
2023-07-02T01:49:47.990Z,2.63
2023-07-02T01:52:14.878Z,2.43
2023-07-02T01:54:41.966Z,2.30
2023-07-02T01:57:10.110Z,2.43
2023-07-02T01:59:37.221Z,2.47
2023-07-02T02:02:04.648Z,2.17
2023-07-02T02:04:31.570Z,2.27
2023-07-02T02:06:58.379Z,2.50
2023-07-02T02:09:25.160Z,2.13
2023-07-02T02:11:53.445Z,2.03
2023-07-02T02:14:20.517Z,2.30
2023-07-02T02:16:47.590Z,2.00
2023-07-02T02:19:17.958Z,2.07
2023-07-02T02:21:45.118Z,2.13
2023-07-02T02:24:11.910Z,2.23
2023-07-02T02:26:38.666Z,1.93
2023-07-02T02:29:05.696Z,1.90
2023-07-02T02:31:32.848Z,1.80
2023-07-02T02:34:01.751Z,1.70
2023-07-02T02:36:28.589Z,1.73
2023-07-02T02:38:56.593Z,1.70
2023-07-02T02:41:24.838Z,1.70
2023-07-02T02:43:53.489Z,1.93
2023-07-02T02:46:23.224Z,1.80
2023-07-02T02:48:50.726Z,1.93
2023-07-02T02:51:17.818Z,2.07
2023-07-02T02:53:44.625Z,2.20
2023-07-02T02:56:11.618Z,2.03
2023-07-02T02:58:38.514Z,1.90
2023-07-02T03:01:11.405Z,2.30
2023-07-02T03:03:40.376Z,3.00
2023-07-02T03:06:07.214Z,1.90
2023-07-02T03:08:33.995Z,2.53
2023-07-02T03:11:00.800Z,1.93
2023-07-02T03:13:27.631Z,2.00
2023-07-02T03:15:54.418Z,2.43
2023-07-02T03:18:21.241Z,2.13
2023-07-02T03:20:48.479Z,2.30
2023-07-02T03:23:15.496Z,2.23
2023-07-02T03:25:42.501Z,2.47
2023-07-02T03:28:09.269Z,2.17
2023-07-02T03:30:36.197Z,1.90
2023-07-02T03:33:03.236Z,1.83
2023-07-02T03:35:30.026Z,2.40
2023-07-02T03:37:58.592Z,2.07
2023-07-02T03:40:25.486Z,2.17
2023-07-02T03:42:52.366Z,2.27
2023-07-02T03:45:19.169Z,2.30
2023-07-02T03:47:46.013Z,2.17
2023-07-02T03:50:12.815Z,2.30
2023-07-02T03:52:39.700Z,2.70
2023-07-02T03:55:07.117Z,2.50
2023-07-02T03:57:34.323Z,2.47
2023-07-02T04:00:01.236Z,2.20
2023-07-02T04:02:28.108Z,2.17
2023-07-02T04:04:55.080Z,2.53
2023-07-02T04:07:21.878Z,2.70
2023-07-02T04:09:48.636Z,3.27
2023-07-02T04:12:15.398Z,2.90
2023-07-02T04:14:42.178Z,2.67
2023-07-02T04:17:09.225Z,2.97
2023-07-02T04:19:36.058Z,3.67
2023-07-02T04:22:03.727Z,3.17
2023-07-02T04:24:30.492Z,3.17
2023-07-02T04:27:04.342Z,2.80
2023-07-02T04:29:45.787Z,3.27
2023-07-02T04:32:12.818Z,3.40
2023-07-02T04:34:39.813Z,3.00
2023-07-02T04:37:07.115Z,3.70
2023-07-02T04:39:35.467Z,3.77
2023-07-02T04:42:02.323Z,3.60
2023-07-02T04:44:32.097Z,3.60
2023-07-02T04:47:00.153Z,4.50
2023-07-02T04:49:27.163Z,3.80
2023-07-02T04:51:54.898Z,4.47
2023-07-02T04:54:22.495Z,3.97
2023-07-02T04:56:49.737Z,4.80
2023-07-02T04:59:16.701Z,4.90
2023-07-02T05:01:45.427Z,5.77
2023-07-02T05:04:12.620Z,4.87
2023-07-02T05:06:39.513Z,5.20
2023-07-02T05:09:06.455Z,5.73
2023-07-02T05:11:33.279Z,5.33
2023-07-02T05:14:00.015Z,4.47
2023-07-02T05:16:26.858Z,6.13
2023-07-02T05:18:53.674Z,5.63
2023-07-02T05:21:21.167Z,6.00
2023-07-02T05:23:49.538Z,5.90
2023-07-02T05:26:16.778Z,6.23
2023-07-02T05:28:43.569Z,6.40
2023-07-02T05:31:10.354Z,6.60
2023-07-02T05:33:37.170Z,7.03
2023-07-02T05:36:04.045Z,6.10
2023-07-02T05:38:30.839Z,6.57
2023-07-02T05:40:58.257Z,6.53
2023-07-02T05:43:25.079Z,6.07
2023-07-02T05:45:54.609Z,5.87
2023-07-02T05:48:21.408Z,6.43
2023-07-02T05:50:48.606Z,6.20
2023-07-02T05:53:15.692Z,6.33
2023-07-02T05:55:44.081Z,5.90
2023-07-02T05:58:11.257Z,6.30
2023-07-02T06:00:38.112Z,6.60
2023-07-02T06:03:04.936Z,6.90
2023-07-02T06:05:31.997Z,6.33
2023-07-02T06:07:58.786Z,6.37
2023-07-02T06:10:25.545Z,6.60
2023-07-02T06:12:53.286Z,7.40
2023-07-02T06:15:20.074Z,6.23
2023-07-02T06:17:46.931Z,7.67
2023-07-02T06:20:14.177Z,7.40
2023-07-02T06:22:41.677Z,7.77
2023-07-02T06:25:08.659Z,7.10
2023-07-02T06:27:35.458Z,8.70
2023-07-02T06:30:02.562Z,8.40
2023-07-02T06:32:29.393Z,7.97
2023-07-02T06:34:56.154Z,8.07
2023-07-02T06:37:23.048Z,7.90
2023-07-02T06:39:49.847Z,7.17
2023-07-02T06:42:16.624Z,7.30
2023-07-02T06:44:44.840Z,7.73
2023-07-02T06:47:11.609Z,7.50
2023-07-02T06:49:38.311Z,7.57
2023-07-02T06:52:05.366Z,7.90
2023-07-02T06:54:32.110Z,9.23
2023-07-02T06:56:58.888Z,6.70
2023-07-02T06:59:25.702Z,7.13
2023-07-02T07:01:52.652Z,7.90
2023-07-02T07:04:20.072Z,7.93
2023-07-02T07:06:47.473Z,8.03
2023-07-02T07:09:14.485Z,7.80
2023-07-02T07:11:41.286Z,8.20
2023-07-02T07:14:08.314Z,7.83
2023-07-02T07:16:36.664Z,8.70
2023-07-02T07:19:03.568Z,8.97
2023-07-02T07:21:30.332Z,8.57
2023-07-02T07:23:57.260Z,8.80
2023-07-02T07:26:24.006Z,9.30
2023-07-02T07:28:50.895Z,8.30
2023-07-02T07:31:17.694Z,8.80
2023-07-02T07:33:45.118Z,7.60
2023-07-02T07:36:12.015Z,7.87
2023-07-02T07:38:39.406Z,7.53
2023-07-02T07:41:06.181Z,8.00
2023-07-02T07:43:32.971Z,8.00
2023-07-02T07:46:00.473Z,9.30
2023-07-02T07:48:27.318Z,9.50
2023-07-02T07:50:54.260Z,8.47
2023-07-02T07:53:21.019Z,8.20
2023-07-02T07:55:47.942Z,8.00
2023-07-02T07:58:15.042Z,9.10
2023-07-02T08:00:41.913Z,8.20
2023-07-02T08:03:08.798Z,9.30
2023-07-02T08:05:35.668Z,8.77
2023-07-02T08:08:02.484Z,9.30
2023-07-02T08:10:29.338Z,9.10
2023-07-02T08:12:56.207Z,8.67
2023-07-02T08:15:23.875Z,9.00
2023-07-02T08:17:52.690Z,9.50
2023-07-02T08:20:20.082Z,8.80
2023-07-02T08:22:46.977Z,9.73
2023-07-02T08:25:13.882Z,8.40
2023-07-02T08:27:40.682Z,9.47
2023-07-02T08:30:08.210Z,8.63
2023-07-02T08:32:35.132Z,8.53
2023-07-02T08:35:03.375Z,9.30
2023-07-02T08:37:30.254Z,9.53
2023-07-02T08:39:57.153Z,8.57
2023-07-02T08:42:24.142Z,8.43
2023-07-02T08:44:56.163Z,7.50
2023-07-02T08:47:23.698Z,7.90
2023-07-02T08:49:51.110Z,9.37
2023-07-02T08:52:17.826Z,8.33
2023-07-02T08:54:44.575Z,7.43
2023-07-02T08:57:11.416Z,8.20
2023-07-02T08:59:38.360Z,8.20
2023-07-02T09:02:05.552Z,7.13
2023-07-02T09:04:32.432Z,8.40
2023-07-02T09:07:06.239Z,8.23
2023-07-02T09:09:34.125Z,8.53
2023-07-02T09:12:01.995Z,8.07
2023-07-02T09:14:32.657Z,8.10
2023-07-02T09:17:10.385Z,7.30
2023-07-02T09:19:49.651Z,7.30
2023-07-02T09:22:17.042Z,6.80
2023-07-02T09:24:54.169Z,7.77
2023-07-02T09:27:21.229Z,7.70
2023-07-02T09:29:55.163Z,7.47
2023-07-02T09:32:27.730Z,6.80
2023-07-02T09:34:57.107Z,6.53
2023-07-02T09:37:24.773Z,7.60
2023-07-02T09:39:55.830Z,8.43
2023-07-02T09:42:23.137Z,6.90
2023-07-02T09:44:54.922Z,7.13
2023-07-02T09:47:23.178Z,7.03
2023-07-02T09:50:04.519Z,7.83
2023-07-02T09:52:31.623Z,6.70
2023-07-02T09:54:58.340Z,6.73
2023-07-02T09:57:25.186Z,6.40
2023-07-02T09:59:52.160Z,7.20
2023-07-02T10:02:19.042Z,5.73
2023-07-02T10:04:47.684Z,6.40
2023-07-02T10:07:27.568Z,6.80
2023-07-02T10:09:56.676Z,6.27
2023-07-02T10:12:28.547Z,6.63
2023-07-02T10:14:57.378Z,6.80
2023-07-02T10:17:55.528Z,7.87
2023-07-02T10:20:34.025Z,6.67
2023-07-02T10:23:02.898Z,7.27
2023-07-02T10:25:30.388Z,6.93
2023-07-02T10:27:57.500Z,6.83
2023-07-02T10:30:35.525Z,6.90
2023-07-02T10:33:15.992Z,7.60
2023-07-02T10:35:45.969Z,7.40
2023-07-02T10:38:23.062Z,7.90
2023-07-02T10:40:57.619Z,7.20
2023-07-02T10:43:31.552Z,7.20
2023-07-02T10:46:02.657Z,8.00
2023-07-02T10:48:30.627Z,8.13
2023-07-02T10:50:57.809Z,7.20
2023-07-02T10:53:25.848Z,7.30
2023-07-02T10:55:57.639Z,7.80
2023-07-02T10:58:25.394Z,7.70
2023-07-02T11:00:52.993Z,8.40
2023-07-02T11:03:24.431Z,8.07
2023-07-02T11:05:53.108Z,7.63
2023-07-02T11:08:22.430Z,8.90
2023-07-02T11:10:49.326Z,8.00
2023-07-02T11:13:21.033Z,8.10
2023-07-02T11:15:49.091Z,8.13
2023-07-02T11:18:17.757Z,9.53
2023-07-02T11:20:46.616Z,9.47
2023-07-02T11:23:23.714Z,10.57
2023-07-02T11:26:04.093Z,9.20
2023-07-02T11:28:32.548Z,9.67
2023-07-02T11:31:00.229Z,8.37
2023-07-02T11:33:41.185Z,8.73
2023-07-02T11:36:09.211Z,9.30
2023-07-02T11:38:37.733Z,8.67
2023-07-02T11:41:05.357Z,7.97
2023-07-02T11:43:32.330Z,8.70
2023-07-02T11:45:59.870Z,9.23
2023-07-02T11:48:26.758Z,9.10
2023-07-02T11:50:53.612Z,8.00
2023-07-02T11:53:20.472Z,9.03
2023-07-02T11:55:47.563Z,9.13
2023-07-02T11:58:14.564Z,8.20
2023-07-02T12:00:41.504Z,8.40
2023-07-02T12:03:08.424Z,9.30
2023-07-02T12:05:35.259Z,8.73
2023-07-02T12:08:03.742Z,8.93
2023-07-02T12:10:30.609Z,9.10
2023-07-02T12:12:57.872Z,9.00
2023-07-02T12:15:24.655Z,9.47
2023-07-02T12:17:51.473Z,8.90
2023-07-02T12:20:18.604Z,9.40
2023-07-02T12:22:45.718Z,10.00
2023-07-02T12:25:40.647Z,8.90
2023-07-02T12:28:07.979Z,9.20
2023-07-02T12:30:34.934Z,9.00
2023-07-02T12:33:01.846Z,9.17
2023-07-02T12:35:28.640Z,9.57
2023-07-02T12:37:55.432Z,10.23
2023-07-02T12:40:22.391Z,9.23
2023-07-02T12:42:51.172Z,9.67
2023-07-02T12:45:21.080Z,9.00
2023-07-02T12:47:48.765Z,10.30
2023-07-02T12:50:15.988Z,10.23
2023-07-02T12:52:42.822Z,9.23
2023-07-02T12:55:09.861Z,9.73
2023-07-02T12:57:37.346Z,10.37
2023-07-02T13:00:07.278Z,10.77
2023-07-02T13:02:39.315Z,10.50
2023-07-02T13:05:14.558Z,10.90
2023-07-02T13:07:41.600Z,10.20
2023-07-02T13:10:08.824Z,11.57
2023-07-02T13:12:35.971Z,10.70
2023-07-02T13:15:02.937Z,10.93
2023-07-02T13:17:29.820Z,11.57
2023-07-02T13:19:57.423Z,12.67
2023-07-02T13:22:24.282Z,12.00
2023-07-02T13:24:51.055Z,11.70
2023-07-02T13:27:19.898Z,13.00
2023-07-02T13:29:46.694Z,12.50
2023-07-02T13:32:13.506Z,12.50
2023-07-02T13:34:40.329Z,11.63
2023-07-02T13:37:07.138Z,11.00
2023-07-02T13:39:33.925Z,12.40
2023-07-02T13:42:00.705Z,10.57
2023-07-02T13:44:27.953Z,12.33
2023-07-02T13:46:54.942Z,12.43
2023-07-02T13:49:22.457Z,13.13
2023-07-02T13:51:50.848Z,13.47
2023-07-02T13:54:19.600Z,12.67
2023-07-02T13:56:50.247Z,12.63
2023-07-02T13:59:18.352Z,13.03
2023-07-02T14:01:46.127Z,11.90
2023-07-02T14:04:14.082Z,13.00
2023-07-02T14:06:41.352Z,13.53
2023-07-02T14:09:08.988Z,13.30
2023-07-02T14:11:39.191Z,11.77
2023-07-02T14:14:06.745Z,13.00
2023-07-02T14:16:33.569Z,13.27
2023-07-02T14:19:00.353Z,14.50
2023-07-02T14:21:27.162Z,13.10
2023-07-02T14:23:53.941Z,13.70
2023-07-02T14:26:20.716Z,12.30
2023-07-02T14:28:47.608Z,12.83
2023-07-02T14:31:14.402Z,13.57
2023-07-02T14:33:41.356Z,13.37
2023-07-02T14:36:08.590Z,11.97
2023-07-02T14:38:35.552Z,13.40
2023-07-02T14:41:02.980Z,11.50
2023-07-02T14:43:31.915Z,12.77
2023-07-02T14:46:02.653Z,13.00
2023-07-02T14:48:29.958Z,12.53
2023-07-02T14:50:59.946Z,11.67
2023-07-02T14:53:28.619Z,12.53
2023-07-02T14:55:57.811Z,12.27
2023-07-02T14:58:25.693Z,12.33
2023-07-02T15:00:55.422Z,12.40
2023-07-02T15:03:24.309Z,13.13
2023-07-02T15:05:52.388Z,13.13
2023-07-02T15:08:21.831Z,11.80
2023-07-02T15:10:51.431Z,12.90
2023-07-02T15:13:19.177Z,12.80
2023-07-02T15:15:47.703Z,13.20
2023-07-02T15:18:14.760Z,12.50
2023-07-02T15:20:45.333Z,11.93
2023-07-02T15:23:13.537Z,12.93
2023-07-02T15:25:40.518Z,11.60
2023-07-02T15:28:07.344Z,11.43
2023-07-02T15:30:38.219Z,11.70
2023-07-02T15:33:05.059Z,12.27
2023-07-02T15:35:32.513Z,11.63
2023-07-02T15:37:59.689Z,11.80
2023-07-02T15:40:27.536Z,12.40
2023-07-02T15:42:54.304Z,12.47
2023-07-02T15:45:21.067Z,11.73
2023-07-02T15:47:47.892Z,12.00
2023-07-02T15:50:14.752Z,11.37
2023-07-02T15:52:41.490Z,13.20
2023-07-02T15:55:08.526Z,14.10
2023-07-02T15:57:35.356Z,12.60
2023-07-02T16:00:02.356Z,13.40
2023-07-02T16:02:40.892Z,14.30
2023-07-02T16:05:08.522Z,14.33
2023-07-02T16:07:35.593Z,12.77
2023-07-02T16:10:06.555Z,14.20
2023-07-02T16:12:33.359Z,13.23
2023-07-02T16:15:00.131Z,12.53
2023-07-02T16:17:26.984Z,12.70
2023-07-02T16:19:53.778Z,13.20
2023-07-02T16:22:20.616Z,13.83
2023-07-02T16:24:48.162Z,12.97
2023-07-02T16:27:15.044Z,13.40
2023-07-02T16:29:41.867Z,12.90
2023-07-02T16:32:13.560Z,13.70
2023-07-02T16:34:40.348Z,13.83
2023-07-02T16:37:07.785Z,14.07
2023-07-02T16:39:35.286Z,15.20
2023-07-02T16:42:02.291Z,13.83
2023-07-02T16:44:31.063Z,13.53
2023-07-02T16:46:59.088Z,13.67
2023-07-02T16:49:28.065Z,12.10
2023-07-02T16:51:55.815Z,13.33
2023-07-02T16:54:24.668Z,13.90
2023-07-02T16:56:57.944Z,14.33
2023-07-02T16:59:26.738Z,14.13
2023-07-02T17:01:56.079Z,13.33
2023-07-02T17:04:24.730Z,13.13
2023-07-02T17:07:00.393Z,13.60
2023-07-02T17:09:34.276Z,13.10
2023-07-02T17:12:06.663Z,13.70
2023-07-02T17:14:37.552Z,13.27
2023-07-02T17:17:08.380Z,13.33
2023-07-02T17:19:43.465Z,13.37
2023-07-02T17:22:14.230Z,13.17
2023-07-02T17:24:43.881Z,14.00
2023-07-02T17:27:12.680Z,14.30
2023-07-02T17:29:39.818Z,13.20
2023-07-02T17:32:08.969Z,13.77
2023-07-02T17:34:37.642Z,14.10
2023-07-02T17:37:07.490Z,14.37
2023-07-02T17:39:37.142Z,14.57
2023-07-02T17:42:04.895Z,12.50
2023-07-02T17:44:35.062Z,12.90
2023-07-02T17:47:06.134Z,13.67
2023-07-02T17:49:35.345Z,14.33
2023-07-02T17:52:02.346Z,14.50
2023-07-02T17:54:41.559Z,13.90
2023-07-02T17:57:10.688Z,14.23
2023-07-02T17:59:37.971Z,13.97
2023-07-02T18:02:06.131Z,12.47
2023-07-02T18:07:10.817Z,12.50
2023-07-02T18:09:41.576Z,13.40
2023-07-02T18:12:10.338Z,13.20
2023-07-02T18:14:39.426Z,13.13
2023-07-02T18:17:06.794Z,14.00
2023-07-02T18:19:35.483Z,13.00
2023-07-02T18:22:04.122Z,14.30
2023-07-02T18:24:36.487Z,13.83
2023-07-02T18:27:05.105Z,13.17
2023-07-02T18:29:33.537Z,14.47
2023-07-02T18:32:06.344Z,12.77
2023-07-02T18:34:35.132Z,13.87
2023-07-02T18:37:02.783Z,14.30
2023-07-02T18:39:33.192Z,14.03
2023-07-02T18:42:01.327Z,13.80
2023-07-02T18:44:34.598Z,13.70
2023-07-02T18:47:03.293Z,12.33
2023-07-02T18:49:35.565Z,14.10
2023-07-02T18:52:08.463Z,12.30
2023-07-02T18:54:36.417Z,13.07
2023-07-02T18:57:05.070Z,14.53
2023-07-02T18:59:32.094Z,12.40
2023-07-02T19:02:00.119Z,13.97
2023-07-02T19:04:28.160Z,13.03
2023-07-02T19:06:57.427Z,12.90
2023-07-02T19:09:24.709Z,14.97
2023-07-02T19:11:51.452Z,13.30
2023-07-02T19:14:18.392Z,12.80
2023-07-02T19:16:45.315Z,14.20
2023-07-02T19:19:12.132Z,13.33
2023-07-02T19:21:39.320Z,14.70
2023-07-02T19:24:06.428Z,12.77
2023-07-02T19:26:33.231Z,14.27
2023-07-02T19:29:00.058Z,13.17
2023-07-02T19:31:26.901Z,13.17
2023-07-02T19:33:53.814Z,12.83
2023-07-02T19:36:20.617Z,13.40
2023-07-02T19:38:47.523Z,13.90
2023-07-02T19:41:14.304Z,13.23
2023-07-02T19:43:41.102Z,13.87
2023-07-02T19:46:08.331Z,13.10
2023-07-02T19:48:35.146Z,14.23
2023-07-02T19:51:06.153Z,13.57
2023-07-02T19:53:35.212Z,13.47
2023-07-02T19:56:09.424Z,14.80
2023-07-02T19:58:37.264Z,13.73
2023-07-02T20:01:04.530Z,14.30
2023-07-02T20:03:32.338Z,13.40
2023-07-02T20:05:59.624Z,14.03
2023-07-02T20:08:26.531Z,13.10
2023-07-02T20:10:53.513Z,14.57
2023-07-02T20:13:20.936Z,14.90
2023-07-02T20:15:49.822Z,12.90
2023-07-02T20:18:18.143Z,13.93
2023-07-02T20:20:45.009Z,13.00
2023-07-02T20:23:12.106Z,15.43
2023-07-02T20:25:49.887Z,12.40
2023-07-02T20:28:17.320Z,13.60
2023-07-02T20:30:45.694Z,14.30
2023-07-02T20:33:12.988Z,14.30
2023-07-02T20:35:42.326Z,13.90
2023-07-02T20:38:10.401Z,15.83
2023-07-02T20:40:38.034Z,13.17
2023-07-02T20:43:05.356Z,13.17
2023-07-02T20:45:32.226Z,13.90
2023-07-02T20:48:03.491Z,14.20
2023-07-02T20:50:30.505Z,14.10
2023-07-02T20:52:58.585Z,14.53
2023-07-02T20:55:25.496Z,15.90
2023-07-02T20:57:52.295Z,14.90
2023-07-02T21:00:19.227Z,13.50
2023-07-02T21:02:46.116Z,14.73
2023-07-02T21:05:14.207Z,13.90
2023-07-02T21:07:42.056Z,13.67
2023-07-02T21:10:09.059Z,14.00
2023-07-02T21:12:35.964Z,12.47
2023-07-02T21:15:03.954Z,14.10
2023-07-02T21:17:31.488Z,13.20
2023-07-02T21:19:58.425Z,14.13
2023-07-02T21:22:25.588Z,13.87
2023-07-02T21:24:52.385Z,14.77
2023-07-02T21:27:19.306Z,14.27
2023-07-02T21:29:46.078Z,13.97
2023-07-02T21:32:12.965Z,13.97
2023-07-02T21:34:42.222Z,13.17
2023-07-02T21:37:09.180Z,15.07
2023-07-02T21:39:35.971Z,13.90
2023-07-02T21:42:03.005Z,13.37
2023-07-02T21:44:29.829Z,13.30
2023-07-02T21:46:56.612Z,13.57
2023-07-02T21:49:23.591Z,12.87
2023-07-02T21:51:50.586Z,13.57
2023-07-02T21:54:17.478Z,12.63
2023-07-02T21:56:44.291Z,14.73
2023-07-02T21:59:11.604Z,12.93
2023-07-02T22:01:39.881Z,15.30
2023-07-02T22:04:06.772Z,13.30
2023-07-02T22:06:33.860Z,14.20
2023-07-02T22:09:04.511Z,13.60
2023-07-02T22:11:31.296Z,13.70
2023-07-02T22:13:58.085Z,14.17
2023-07-02T22:16:24.910Z,13.80
2023-07-02T22:18:52.054Z,13.60
2023-07-02T22:21:18.922Z,15.40
2023-07-02T22:23:47.717Z,14.40
2023-07-02T22:26:14.991Z,14.57
2023-07-02T22:28:41.928Z,14.40
2023-07-02T22:31:08.728Z,13.87
2023-07-02T22:33:35.553Z,14.10
2023-07-02T22:36:02.401Z,12.93
2023-07-02T22:38:29.268Z,13.30
2023-07-02T22:40:56.057Z,12.83
2023-07-02T22:43:22.840Z,14.10
2023-07-02T22:45:50.116Z,14.00
2023-07-02T22:48:17.641Z,15.17
2023-07-02T22:50:45.355Z,15.30
2023-07-02T22:53:12.220Z,14.13
2023-07-02T22:55:39.076Z,14.53
2023-07-02T22:58:05.953Z,14.70
2023-07-02T23:00:32.741Z,13.30
2023-07-02T23:02:59.715Z,14.77
2023-07-02T23:05:26.739Z,13.77
2023-07-02T23:07:53.576Z,14.83
2023-07-02T23:10:21.124Z,14.63
2023-07-02T23:12:50.340Z,14.97
2023-07-02T23:15:20.855Z,14.77
2023-07-02T23:17:53.208Z,14.60
2023-07-02T23:20:20.507Z,13.37
2023-07-02T23:22:49.446Z,14.73
2023-07-02T23:25:20.020Z,14.37
2023-07-02T23:27:49.838Z,13.63
2023-07-02T23:30:22.148Z,13.80
2023-07-02T23:32:54.282Z,14.17
2023-07-02T23:35:21.860Z,14.50
2023-07-02T23:37:51.564Z,15.20
2023-07-02T23:40:19.085Z,14.17
2023-07-02T23:42:46.630Z,14.63
2023-07-02T23:45:15.652Z,15.27
2023-07-02T23:47:43.878Z,13.90
2023-07-02T23:50:12.390Z,15.20
2023-07-02T23:52:39.931Z,16.23
2023-07-02T23:55:11.999Z,14.13
2023-07-02T23:57:39.421Z,14.90
